sensor_id;sensor_type;location;lat;lon;timestamp;P1;durP1;ratioP1;P2;durP2;ratioP2
76063;SDS011;64762;52.006;8.424;2023-07-13T00:00:26;10.13;;;2.90;;
76063;SDS011;64762;52.006;8.424;2023-07-13T00:02:52;9.20;;;3.30;;
76063;SDS011;64762;52.006;8.424;2023-07-13T00:05:18;6.80;;;3.28;;
76063;SDS011;64762;52.006;8.424;2023-07-13T00:07:45;5.57;;;3.30;;
76063;SDS011;64762;52.006;8.424;2023-07-13T00:10:11;7.75;;;3.50;;
76063;SDS011;64762;52.006;8.424;2023-07-13T00:12:36;7.53;;;3.23;;
76063;SDS011;64762;52.006;8.424;2023-07-13T00:15:15;9.90;;;3.60;;
76063;SDS011;64762;52.006;8.424;2023-07-13T00:17:47;9.55;;;3.25;;
76063;SDS011;64762;52.006;8.424;2023-07-13T00:20:13;6.85;;;3.20;;
76063;SDS011;64762;52.006;8.424;2023-07-13T00:22:38;7.37;;;3.70;;
76063;SDS011;64762;52.006;8.424;2023-07-13T00:25:04;7.80;;;3.13;;
76063;SDS011;64762;52.006;8.424;2023-07-13T00:27:29;12.00;;;4.00;;
76063;SDS011;64762;52.006;8.424;2023-07-13T00:29:56;13.18;;;3.92;;
76063;SDS011;64762;52.006;8.424;2023-07-13T00:32:22;6.70;;;3.53;;
76063;SDS011;64762;52.006;8.424;2023-07-13T00:34:47;6.67;;;3.37;;
76063;SDS011;64762;52.006;8.424;2023-07-13T00:37:12;7.57;;;3.60;;
76063;SDS011;64762;52.006;8.424;2023-07-13T00:39:38;7.90;;;3.37;;
76063;SDS011;64762;52.006;8.424;2023-07-13T00:42:04;5.75;;;3.00;;
76063;SDS011;64762;52.006;8.424;2023-07-13T00:44:29;6.38;;;2.45;;
76063;SDS011;64762;52.006;8.424;2023-07-13T00:46:55;6.20;;;3.13;;
76063;SDS011;64762;52.006;8.424;2023-07-13T00:49:23;10.73;;;3.58;;
76063;SDS011;64762;52.006;8.424;2023-07-13T00:52:02;6.75;;;2.90;;
76063;SDS011;64762;52.006;8.424;2023-07-13T00:54:32;9.07;;;3.47;;
76063;SDS011;64762;52.006;8.424;2023-07-13T00:57:00;6.93;;;3.58;;
76063;SDS011;64762;52.006;8.424;2023-07-13T00:59:27;7.18;;;3.10;;
76063;SDS011;64762;52.006;8.424;2023-07-13T01:01:53;8.00;;;3.93;;
76063;SDS011;64762;52.006;8.424;2023-07-13T01:04:18;10.45;;;3.17;;
76063;SDS011;64762;52.006;8.424;2023-07-13T01:06:44;7.35;;;3.28;;
76063;SDS011;64762;52.006;8.424;2023-07-13T01:09:10;6.70;;;3.25;;
76063;SDS011;64762;52.006;8.424;2023-07-13T01:11:36;7.18;;;3.20;;
76063;SDS011;64762;52.006;8.424;2023-07-13T01:14:02;7.67;;;3.43;;
76063;SDS011;64762;52.006;8.424;2023-07-13T01:16:29;8.70;;;3.38;;
76063;SDS011;64762;52.006;8.424;2023-07-13T01:18:56;6.25;;;3.20;;
76063;SDS011;64762;52.006;8.424;2023-07-13T01:21:23;7.25;;;4.00;;
76063;SDS011;64762;52.006;8.424;2023-07-13T01:23:49;8.57;;;4.00;;
76063;SDS011;64762;52.006;8.424;2023-07-13T01:26:14;10.80;;;3.87;;
76063;SDS011;64762;52.006;8.424;2023-07-13T01:28:40;7.72;;;3.67;;
76063;SDS011;64762;52.006;8.424;2023-07-13T01:31:05;6.50;;;3.87;;
76063;SDS011;64762;52.006;8.424;2023-07-13T01:33:30;11.33;;;4.63;;
76063;SDS011;64762;52.006;8.424;2023-07-13T01:35:55;8.47;;;4.60;;
76063;SDS011;64762;52.006;8.424;2023-07-13T01:38:22;9.52;;;4.25;;
76063;SDS011;64762;52.006;8.424;2023-07-13T01:40:49;8.35;;;4.30;;
76063;SDS011;64762;52.006;8.424;2023-07-13T01:43:16;11.63;;;4.07;;
76063;SDS011;64762;52.006;8.424;2023-07-13T01:45:41;7.78;;;3.40;;
76063;SDS011;64762;52.006;8.424;2023-07-13T01:48:08;9.02;;;4.25;;
76063;SDS011;64762;52.006;8.424;2023-07-13T01:50:34;9.17;;;3.20;;
76063;SDS011;64762;52.006;8.424;2023-07-13T01:52:59;10.33;;;3.70;;
76063;SDS011;64762;52.006;8.424;2023-07-13T01:55:24;7.93;;;3.80;;
76063;SDS011;64762;52.006;8.424;2023-07-13T01:57:50;6.90;;;3.87;;
76063;SDS011;64762;52.006;8.424;2023-07-13T02:00:15;6.73;;;3.73;;
76063;SDS011;64762;52.006;8.424;2023-07-13T02:02:41;7.60;;;3.38;;
76063;SDS011;64762;52.006;8.424;2023-07-13T02:05:06;7.10;;;3.88;;
76063;SDS011;64762;52.006;8.424;2023-07-13T02:07:32;12.23;;;3.88;;
76063;SDS011;64762;52.006;8.424;2023-07-13T02:09:57;8.23;;;3.93;;
76063;SDS011;64762;52.006;8.424;2023-07-13T02:12:23;7.47;;;3.53;;
76063;SDS011;64762;52.006;8.424;2023-07-13T02:14:48;8.80;;;3.60;;
76063;SDS011;64762;52.006;8.424;2023-07-13T02:17:13;12.53;;;3.67;;
76063;SDS011;64762;52.006;8.424;2023-07-13T02:19:38;11.27;;;3.87;;
76063;SDS011;64762;52.006;8.424;2023-07-13T02:22:04;11.43;;;3.57;;
76063;SDS011;64762;52.006;8.424;2023-07-13T02:24:29;13.05;;;4.20;;
76063;SDS011;64762;52.006;8.424;2023-07-13T02:26:54;8.53;;;4.00;;
76063;SDS011;64762;52.006;8.424;2023-07-13T02:29:20;8.87;;;3.57;;
76063;SDS011;64762;52.006;8.424;2023-07-13T02:31:45;5.90;;;3.13;;
76063;SDS011;64762;52.006;8.424;2023-07-13T02:34:10;9.90;;;3.80;;
76063;SDS011;64762;52.006;8.424;2023-07-13T02:36:36;11.10;;;3.80;;
76063;SDS011;64762;52.006;8.424;2023-07-13T02:39:02;10.00;;;4.30;;
76063;SDS011;64762;52.006;8.424;2023-07-13T02:41:28;11.68;;;3.50;;
76063;SDS011;64762;52.006;8.424;2023-07-13T02:43:54;12.40;;;5.27;;
76063;SDS011;64762;52.006;8.424;2023-07-13T02:46:19;7.82;;;4.03;;
76063;SDS011;64762;52.006;8.424;2023-07-13T02:48:45;8.73;;;3.37;;
76063;SDS011;64762;52.006;8.424;2023-07-13T02:51:10;10.60;;;3.47;;
76063;SDS011;64762;52.006;8.424;2023-07-13T02:53:35;12.40;;;3.70;;
76063;SDS011;64762;52.006;8.424;2023-07-13T02:56:01;9.80;;;3.97;;
76063;SDS011;64762;52.006;8.424;2023-07-13T02:58:27;13.77;;;4.47;;
76063;SDS011;64762;52.006;8.424;2023-07-13T03:00:52;12.87;;;4.47;;
76063;SDS011;64762;52.006;8.424;2023-07-13T03:03:17;10.57;;;4.13;;
76063;SDS011;64762;52.006;8.424;2023-07-13T03:05:43;13.17;;;5.43;;
76063;SDS011;64762;52.006;8.424;2023-07-13T03:08:10;12.77;;;3.47;;
76063;SDS011;64762;52.006;8.424;2023-07-13T03:10:36;8.50;;;3.83;;
76063;SDS011;64762;52.006;8.424;2023-07-13T03:13:02;12.57;;;3.95;;
76063;SDS011;64762;52.006;8.424;2023-07-13T03:15:27;9.37;;;3.50;;
76063;SDS011;64762;52.006;8.424;2023-07-13T03:17:52;12.50;;;3.60;;
76063;SDS011;64762;52.006;8.424;2023-07-13T03:20:18;8.90;;;3.47;;
76063;SDS011;64762;52.006;8.424;2023-07-13T03:22:43;12.40;;;3.95;;
76063;SDS011;64762;52.006;8.424;2023-07-13T03:25:09;11.33;;;3.50;;
76063;SDS011;64762;52.006;8.424;2023-07-13T03:27:34;9.47;;;3.50;;
76063;SDS011;64762;52.006;8.424;2023-07-13T03:29:59;12.97;;;3.97;;
76063;SDS011;64762;52.006;8.424;2023-07-13T03:32:24;15.23;;;3.77;;
76063;SDS011;64762;52.006;8.424;2023-07-13T03:34:50;11.97;;;3.93;;
76063;SDS011;64762;52.006;8.424;2023-07-13T03:37:15;10.80;;;3.83;;
76063;SDS011;64762;52.006;8.424;2023-07-13T03:39:40;14.70;;;4.50;;
76063;SDS011;64762;52.006;8.424;2023-07-13T03:42:07;7.45;;;3.50;;
76063;SDS011;64762;52.006;8.424;2023-07-13T03:44:32;10.68;;;3.88;;
76063;SDS011;64762;52.006;8.424;2023-07-13T03:46:57;10.90;;;3.90;;
76063;SDS011;64762;52.006;8.424;2023-07-13T03:49:23;7.73;;;3.57;;
76063;SDS011;64762;52.006;8.424;2023-07-13T03:51:48;13.70;;;3.80;;
76063;SDS011;64762;52.006;8.424;2023-07-13T03:54:13;10.80;;;4.00;;
76063;SDS011;64762;52.006;8.424;2023-07-13T03:56:38;9.27;;;4.10;;
76063;SDS011;64762;52.006;8.424;2023-07-13T03:59:04;9.53;;;5.10;;
76063;SDS011;64762;52.006;8.424;2023-07-13T04:01:29;11.83;;;4.53;;
76063;SDS011;64762;52.006;8.424;2023-07-13T04:03:54;13.15;;;4.47;;
76063;SDS011;64762;52.006;8.424;2023-07-13T04:06:25;9.10;;;3.57;;
76063;SDS011;64762;52.006;8.424;2023-07-13T04:08:53;8.85;;;3.63;;
76063;SDS011;64762;52.006;8.424;2023-07-13T04:11:20;8.77;;;3.63;;
76063;SDS011;64762;52.006;8.424;2023-07-13T04:13:47;9.77;;;3.25;;
76063;SDS011;64762;52.006;8.424;2023-07-13T04:16:13;10.00;;;3.53;;
76063;SDS011;64762;52.006;8.424;2023-07-13T04:18:39;11.25;;;3.58;;
76063;SDS011;64762;52.006;8.424;2023-07-13T04:21:04;10.93;;;3.63;;
76063;SDS011;64762;52.006;8.424;2023-07-13T04:23:29;12.17;;;3.17;;
76063;SDS011;64762;52.006;8.424;2023-07-13T04:25:55;12.50;;;3.20;;
76063;SDS011;64762;52.006;8.424;2023-07-13T04:28:23;8.87;;;4.00;;
76063;SDS011;64762;52.006;8.424;2023-07-13T04:30:50;20.17;;;3.60;;
76063;SDS011;64762;52.006;8.424;2023-07-13T04:33:15;12.40;;;3.42;;
76063;SDS011;64762;52.006;8.424;2023-07-13T04:35:42;14.60;;;3.25;;
76063;SDS011;64762;52.006;8.424;2023-07-13T04:38:07;11.48;;;3.75;;
76063;SDS011;64762;52.006;8.424;2023-07-13T04:40:34;8.80;;;3.85;;
76063;SDS011;64762;52.006;8.424;2023-07-13T04:42:59;15.07;;;3.40;;
76063;SDS011;64762;52.006;8.424;2023-07-13T04:45:25;14.53;;;3.40;;
76063;SDS011;64762;52.006;8.424;2023-07-13T04:47:50;15.57;;;3.20;;
76063;SDS011;64762;52.006;8.424;2023-07-13T04:50:15;12.93;;;3.50;;
76063;SDS011;64762;52.006;8.424;2023-07-13T04:52:45;14.82;;;3.90;;
76063;SDS011;64762;52.006;8.424;2023-07-13T04:55:10;20.85;;;3.75;;
76063;SDS011;64762;52.006;8.424;2023-07-13T04:57:36;23.87;;;4.67;;
76063;SDS011;64762;52.006;8.424;2023-07-13T05:00:01;15.97;;;3.60;;
76063;SDS011;64762;52.006;8.424;2023-07-13T05:02:31;12.07;;;2.75;;
76063;SDS011;64762;52.006;8.424;2023-07-13T05:04:57;16.48;;;3.22;;
76063;SDS011;64762;52.006;8.424;2023-07-13T05:07:22;10.60;;;2.43;;
76063;SDS011;64762;52.006;8.424;2023-07-13T05:09:48;8.63;;;3.00;;
76063;SDS011;64762;52.006;8.424;2023-07-13T05:12:13;8.17;;;2.23;;
76063;SDS011;64762;52.006;8.424;2023-07-13T05:14:38;6.63;;;2.70;;
76063;SDS011;64762;52.006;8.424;2023-07-13T05:17:04;6.47;;;2.20;;
76063;SDS011;64762;52.006;8.424;2023-07-13T05:19:29;7.60;;;2.40;;
76063;SDS011;64762;52.006;8.424;2023-07-13T05:21:55;9.80;;;2.38;;
76063;SDS011;64762;52.006;8.424;2023-07-13T05:24:20;11.90;;;3.27;;
76063;SDS011;64762;52.006;8.424;2023-07-13T05:26:46;9.05;;;2.70;;
76063;SDS011;64762;52.006;8.424;2023-07-13T05:29:11;8.37;;;2.73;;
76063;SDS011;64762;52.006;8.424;2023-07-13T05:31:36;8.37;;;2.30;;
76063;SDS011;64762;52.006;8.424;2023-07-13T05:34:02;9.68;;;2.38;;
76063;SDS011;64762;52.006;8.424;2023-07-13T05:36:27;10.03;;;2.50;;
76063;SDS011;64762;52.006;8.424;2023-07-13T05:38:52;5.17;;;2.40;;
76063;SDS011;64762;52.006;8.424;2023-07-13T05:41:17;9.20;;;2.50;;
76063;SDS011;64762;52.006;8.424;2023-07-13T05:43:43;8.70;;;2.00;;
76063;SDS011;64762;52.006;8.424;2023-07-13T05:46:08;9.93;;;2.67;;
76063;SDS011;64762;52.006;8.424;2023-07-13T05:48:34;11.57;;;2.17;;
76063;SDS011;64762;52.006;8.424;2023-07-13T05:51:00;12.00;;;2.57;;
76063;SDS011;64762;52.006;8.424;2023-07-13T05:53:25;7.60;;;2.70;;
76063;SDS011;64762;52.006;8.424;2023-07-13T05:55:51;13.13;;;2.20;;
76063;SDS011;64762;52.006;8.424;2023-07-13T05:58:19;10.55;;;2.65;;
76063;SDS011;64762;52.006;8.424;2023-07-13T06:00:44;10.48;;;2.60;;
76063;SDS011;64762;52.006;8.424;2023-07-13T06:03:10;10.57;;;2.30;;
76063;SDS011;64762;52.006;8.424;2023-07-13T06:05:35;12.83;;;2.53;;
76063;SDS011;64762;52.006;8.424;2023-07-13T06:08:02;12.15;;;2.50;;
76063;SDS011;64762;52.006;8.424;2023-07-13T06:10:27;11.43;;;2.35;;
76063;SDS011;64762;52.006;8.424;2023-07-13T06:12:52;9.03;;;2.10;;
76063;SDS011;64762;52.006;8.424;2023-07-13T06:15:18;14.37;;;2.53;;
76063;SDS011;64762;52.006;8.424;2023-07-13T06:17:43;10.52;;;2.00;;
76063;SDS011;64762;52.006;8.424;2023-07-13T06:20:09;11.87;;;2.37;;
76063;SDS011;64762;52.006;8.424;2023-07-13T06:22:34;10.05;;;2.10;;
76063;SDS011;64762;52.006;8.424;2023-07-13T06:24:59;8.90;;;2.17;;
76063;SDS011;64762;52.006;8.424;2023-07-13T06:27:25;12.57;;;2.10;;
76063;SDS011;64762;52.006;8.424;2023-07-13T06:29:50;8.63;;;2.43;;
76063;SDS011;64762;52.006;8.424;2023-07-13T06:32:15;10.63;;;2.17;;
76063;SDS011;64762;52.006;8.424;2023-07-13T06:34:41;12.27;;;2.27;;
76063;SDS011;64762;52.006;8.424;2023-07-13T06:37:06;15.23;;;2.60;;
76063;SDS011;64762;52.006;8.424;2023-07-13T06:39:32;9.20;;;2.60;;
76063;SDS011;64762;52.006;8.424;2023-07-13T06:41:57;9.70;;;2.63;;
76063;SDS011;64762;52.006;8.424;2023-07-13T06:44:22;9.00;;;2.60;;
76063;SDS011;64762;52.006;8.424;2023-07-13T06:46:48;14.03;;;2.83;;
76063;SDS011;64762;52.006;8.424;2023-07-13T06:49:13;13.47;;;3.50;;
76063;SDS011;64762;52.006;8.424;2023-07-13T06:51:38;10.50;;;3.43;;
76063;SDS011;64762;52.006;8.424;2023-07-13T06:54:03;15.77;;;3.50;;
76063;SDS011;64762;52.006;8.424;2023-07-13T06:56:29;14.67;;;3.53;;
76063;SDS011;64762;52.006;8.424;2023-07-13T06:58:54;9.13;;;3.07;;
76063;SDS011;64762;52.006;8.424;2023-07-13T07:01:19;12.60;;;3.10;;
76063;SDS011;64762;52.006;8.424;2023-07-13T07:03:45;9.00;;;3.30;;
76063;SDS011;64762;52.006;8.424;2023-07-13T07:06:17;9.20;;;3.35;;
76063;SDS011;64762;52.006;8.424;2023-07-13T07:08:44;7.78;;;2.50;;
76063;SDS011;64762;52.006;8.424;2023-07-13T07:11:12;15.55;;;3.33;;
76063;SDS011;64762;52.006;8.424;2023-07-13T07:13:38;11.30;;;3.13;;
76063;SDS011;64762;52.006;8.424;2023-07-13T07:16:03;12.20;;;3.93;;
76063;SDS011;64762;52.006;8.424;2023-07-13T07:18:29;8.33;;;3.80;;
76063;SDS011;64762;52.006;8.424;2023-07-13T07:20:54;13.45;;;3.47;;
76063;SDS011;64762;52.006;8.424;2023-07-13T07:23:19;9.70;;;3.40;;
76063;SDS011;64762;52.006;8.424;2023-07-13T07:25:44;13.47;;;3.63;;
76063;SDS011;64762;52.006;8.424;2023-07-13T07:28:10;14.93;;;3.50;;
76063;SDS011;64762;52.006;8.424;2023-07-13T07:30:36;8.43;;;2.88;;
76063;SDS011;64762;52.006;8.424;2023-07-13T07:33:02;7.82;;;3.53;;
76063;SDS011;64762;52.006;8.424;2023-07-13T07:35:28;9.40;;;3.20;;
76063;SDS011;64762;52.006;8.424;2023-07-13T07:37:53;11.17;;;3.00;;
76063;SDS011;64762;52.006;8.424;2023-07-13T07:40:19;15.17;;;3.50;;
76063;SDS011;64762;52.006;8.424;2023-07-13T07:42:44;12.40;;;2.78;;
76063;SDS011;64762;52.006;8.424;2023-07-13T07:45:09;10.67;;;3.13;;
76063;SDS011;64762;52.006;8.424;2023-07-13T07:47:36;10.00;;;2.85;;
76063;SDS011;64762;52.006;8.424;2023-07-13T07:50:01;16.60;;;3.03;;
76063;SDS011;64762;52.006;8.424;2023-07-13T07:52:27;10.00;;;3.08;;
76063;SDS011;64762;52.006;8.424;2023-07-13T07:54:52;11.17;;;2.87;;
76063;SDS011;64762;52.006;8.424;2023-07-13T07:57:17;12.30;;;3.20;;
76063;SDS011;64762;52.006;8.424;2023-07-13T07:59:43;12.83;;;3.60;;
76063;SDS011;64762;52.006;8.424;2023-07-13T08:02:08;12.37;;;3.20;;
76063;SDS011;64762;52.006;8.424;2023-07-13T08:04:35;10.35;;;3.17;;
76063;SDS011;64762;52.006;8.424;2023-07-13T08:07:00;11.83;;;2.73;;
76063;SDS011;64762;52.006;8.424;2023-07-13T08:09:27;10.90;;;2.72;;
76063;SDS011;64762;52.006;8.424;2023-07-13T08:11:53;9.70;;;2.80;;
76063;SDS011;64762;52.006;8.424;2023-07-13T08:14:19;11.75;;;3.05;;
76063;SDS011;64762;52.006;8.424;2023-07-13T08:16:44;7.27;;;2.63;;
76063;SDS011;64762;52.006;8.424;2023-07-13T08:19:10;8.30;;;2.93;;
76063;SDS011;64762;52.006;8.424;2023-07-13T08:21:36;11.18;;;2.63;;
76063;SDS011;64762;52.006;8.424;2023-07-13T08:24:02;6.53;;;2.88;;
76063;SDS011;64762;52.006;8.424;2023-07-13T08:26:27;10.98;;;3.42;;
76063;SDS011;64762;52.006;8.424;2023-07-13T08:28:52;6.27;;;3.20;;
76063;SDS011;64762;52.006;8.424;2023-07-13T08:31:18;10.60;;;3.17;;
76063;SDS011;64762;52.006;8.424;2023-07-13T08:33:43;10.70;;;3.83;;
76063;SDS011;64762;52.006;8.424;2023-07-13T08:36:08;8.43;;;2.83;;
76063;SDS011;64762;52.006;8.424;2023-07-13T08:38:34;12.40;;;3.63;;
76063;SDS011;64762;52.006;8.424;2023-07-13T08:40:59;12.37;;;4.13;;
76063;SDS011;64762;52.006;8.424;2023-07-13T08:43:28;9.43;;;3.17;;
76063;SDS011;64762;52.006;8.424;2023-07-13T08:46:02;8.00;;;3.03;;
76063;SDS011;64762;52.006;8.424;2023-07-13T08:51:02;11.55;;;3.97;;
76063;SDS011;64762;52.006;8.424;2023-07-13T08:53:36;8.75;;;3.55;;
76063;SDS011;64762;52.006;8.424;2023-07-13T08:56:04;10.73;;;3.80;;
76063;SDS011;64762;52.006;8.424;2023-07-13T08:58:35;10.77;;;4.30;;
76063;SDS011;64762;52.006;8.424;2023-07-13T09:01:14;8.55;;;3.92;;
76063;SDS011;64762;52.006;8.424;2023-07-13T09:03:46;12.57;;;4.18;;
76063;SDS011;64762;52.006;8.424;2023-07-13T09:06:33;9.77;;;4.00;;
76063;SDS011;64762;52.006;8.424;2023-07-13T09:09:10;8.48;;;3.53;;
76063;SDS011;64762;52.006;8.424;2023-07-13T09:11:47;9.45;;;4.25;;
76063;SDS011;64762;52.006;8.424;2023-07-13T09:17:03;8.32;;;3.95;;
76063;SDS011;64762;52.006;8.424;2023-07-13T09:19:30;8.25;;;4.05;;
76063;SDS011;64762;52.006;8.424;2023-07-13T09:21:58;9.55;;;4.03;;
76063;SDS011;64762;52.006;8.424;2023-07-13T09:27:59;8.90;;;3.67;;
76063;SDS011;64762;52.006;8.424;2023-07-13T09:32:41;10.27;;;3.75;;
76063;SDS011;64762;52.006;8.424;2023-07-13T09:35:10;9.93;;;4.35;;
76063;SDS011;64762;52.006;8.424;2023-07-13T09:37:37;6.28;;;3.38;;
76063;SDS011;64762;52.006;8.424;2023-07-13T09:40:02;10.97;;;3.60;;
76063;SDS011;64762;52.006;8.424;2023-07-13T09:42:30;8.63;;;3.35;;
76063;SDS011;64762;52.006;8.424;2023-07-13T09:44:57;11.35;;;3.72;;
76063;SDS011;64762;52.006;8.424;2023-07-13T09:47:26;8.05;;;3.80;;
76063;SDS011;64762;52.006;8.424;2023-07-13T09:49:56;10.02;;;3.75;;
76063;SDS011;64762;52.006;8.424;2023-07-13T09:52:23;10.05;;;3.30;;
76063;SDS011;64762;52.006;8.424;2023-07-13T09:54:49;5.10;;;2.65;;
76063;SDS011;64762;52.006;8.424;2023-07-13T09:57:16;10.80;;;3.47;;
76063;SDS011;64762;52.006;8.424;2023-07-13T09:59:44;7.60;;;3.08;;
76063;SDS011;64762;52.006;8.424;2023-07-13T10:05:01;7.70;;;3.92;;
76063;SDS011;64762;52.006;8.424;2023-07-13T10:07:31;6.22;;;2.88;;
76063;SDS011;64762;52.006;8.424;2023-07-13T10:09:58;7.90;;;3.80;;
76063;SDS011;64762;52.006;8.424;2023-07-13T10:12:26;12.15;;;3.60;;
76063;SDS011;64762;52.006;8.424;2023-07-13T10:14:54;7.97;;;3.30;;
76063;SDS011;64762;52.006;8.424;2023-07-13T10:17:24;7.95;;;3.50;;
76063;SDS011;64762;52.006;8.424;2023-07-13T10:19:51;9.13;;;3.47;;
76063;SDS011;64762;52.006;8.424;2023-07-13T10:25:31;8.27;;;3.70;;
76063;SDS011;64762;52.006;8.424;2023-07-13T10:28:06;12.93;;;4.10;;
76063;SDS011;64762;52.006;8.424;2023-07-13T10:30:46;7.88;;;3.58;;
76063;SDS011;64762;52.006;8.424;2023-07-13T10:33:12;9.70;;;4.18;;
76063;SDS011;64762;52.006;8.424;2023-07-13T10:35:41;7.20;;;3.80;;
76063;SDS011;64762;52.006;8.424;2023-07-13T10:38:13;8.02;;;4.72;;
76063;SDS011;64762;52.006;8.424;2023-07-13T10:40:40;7.80;;;5.00;;
76063;SDS011;64762;52.006;8.424;2023-07-13T10:43:15;9.60;;;4.68;;
76063;SDS011;64762;52.006;8.424;2023-07-13T10:45:45;7.45;;;4.65;;
76063;SDS011;64762;52.006;8.424;2023-07-13T10:48:12;10.40;;;5.03;;
76063;SDS011;64762;52.006;8.424;2023-07-13T10:50:38;11.38;;;4.90;;
76063;SDS011;64762;52.006;8.424;2023-07-13T10:58:29;14.75;;;5.78;;
76063;SDS011;64762;52.006;8.424;2023-07-13T11:03:31;14.63;;;5.50;;
76063;SDS011;64762;52.006;8.424;2023-07-13T11:06:06;12.98;;;6.07;;
76063;SDS011;64762;52.006;8.424;2023-07-13T11:13:56;9.38;;;5.55;;
76063;SDS011;64762;52.006;8.424;2023-07-13T11:18:52;9.00;;;4.67;;
76063;SDS011;64762;52.006;8.424;2023-07-13T11:21:26;7.53;;;4.20;;
76063;SDS011;64762;52.006;8.424;2023-07-13T11:23:54;10.30;;;3.92;;
76063;SDS011;64762;52.006;8.424;2023-07-13T11:31:38;7.07;;;4.07;;
76063;SDS011;64762;52.006;8.424;2023-07-13T11:34:06;8.65;;;5.30;;
76063;SDS011;64762;52.006;8.424;2023-07-13T11:36:38;9.20;;;4.60;;
76063;SDS011;64762;52.006;8.424;2023-07-13T11:39:21;10.65;;;4.50;;
76063;SDS011;64762;52.006;8.424;2023-07-13T11:41:57;7.90;;;3.67;;
76063;SDS011;64762;52.006;8.424;2023-07-13T11:44:25;7.78;;;3.60;;
76063;SDS011;64762;52.006;8.424;2023-07-13T11:46:55;8.30;;;3.53;;
76063;SDS011;64762;52.006;8.424;2023-07-13T11:49:23;9.35;;;3.65;;
76063;SDS011;64762;52.006;8.424;2023-07-13T11:51:49;5.85;;;3.20;;
76063;SDS011;64762;52.006;8.424;2023-07-13T11:54:27;8.02;;;3.90;;
76063;SDS011;64762;52.006;8.424;2023-07-13T11:57:01;7.53;;;2.83;;
76063;SDS011;64762;52.006;8.424;2023-07-13T11:59:32;7.47;;;3.33;;
76063;SDS011;64762;52.006;8.424;2023-07-13T12:01:58;8.25;;;3.30;;
76063;SDS011;64762;52.006;8.424;2023-07-13T12:04:29;6.28;;;3.42;;
76063;SDS011;64762;52.006;8.424;2023-07-13T12:07:14;7.35;;;3.10;;
76063;SDS011;64762;52.006;8.424;2023-07-13T12:09:40;8.23;;;3.22;;
76063;SDS011;64762;52.006;8.424;2023-07-13T12:12:28;5.18;;;2.72;;
76063;SDS011;64762;52.006;8.424;2023-07-13T12:14:53;11.30;;;3.88;;
76063;SDS011;64762;52.006;8.424;2023-07-13T12:17:21;7.75;;;3.22;;
76063;SDS011;64762;52.006;8.424;2023-07-13T12:19:47;7.70;;;3.85;;
76063;SDS011;64762;52.006;8.424;2023-07-13T12:22:14;5.35;;;3.35;;
76063;SDS011;64762;52.006;8.424;2023-07-13T12:24:41;9.27;;;3.50;;
76063;SDS011;64762;52.006;8.424;2023-07-13T12:27:14;7.88;;;3.80;;
76063;SDS011;64762;52.006;8.424;2023-07-13T12:29:49;11.43;;;4.00;;
76063;SDS011;64762;52.006;8.424;2023-07-13T12:32:17;10.95;;;3.97;;
76063;SDS011;64762;52.006;8.424;2023-07-13T12:34:52;8.18;;;3.92;;
76063;SDS011;64762;52.006;8.424;2023-07-13T12:37:29;9.25;;;4.68;;
76063;SDS011;64762;52.006;8.424;2023-07-13T12:39:56;7.45;;;4.63;;
76063;SDS011;64762;52.006;8.424;2023-07-13T12:42:25;12.90;;;4.85;;
76063;SDS011;64762;52.006;8.424;2023-07-13T12:44:57;8.27;;;4.38;;
76063;SDS011;64762;52.006;8.424;2023-07-13T12:47:25;9.60;;;4.18;;
76063;SDS011;64762;52.006;8.424;2023-07-13T12:49:59;8.80;;;4.25;;
76063;SDS011;64762;52.006;8.424;2023-07-13T12:52:32;7.20;;;4.30;;
76063;SDS011;64762;52.006;8.424;2023-07-13T12:54:59;7.38;;;4.45;;
76063;SDS011;64762;52.006;8.424;2023-07-13T12:57:41;7.95;;;3.83;;
76063;SDS011;64762;52.006;8.424;2023-07-13T13:02:51;7.32;;;2.85;;
76063;SDS011;64762;52.006;8.424;2023-07-13T13:05:18;5.20;;;2.85;;
76063;SDS011;64762;52.006;8.424;2023-07-13T13:07:43;7.75;;;2.90;;
76063;SDS011;64762;52.006;8.424;2023-07-13T13:10:12;4.40;;;2.30;;
76063;SDS011;64762;52.006;8.424;2023-07-13T13:12:38;8.48;;;2.70;;
76063;SDS011;64762;52.006;8.424;2023-07-13T13:15:04;6.30;;;2.40;;
76063;SDS011;64762;52.006;8.424;2023-07-13T13:17:31;8.02;;;3.13;;
76063;SDS011;64762;52.006;8.424;2023-07-13T13:19:57;7.05;;;2.63;;
76063;SDS011;64762;52.006;8.424;2023-07-13T13:22:22;4.60;;;2.20;;
76063;SDS011;64762;52.006;8.424;2023-07-13T13:24:48;5.68;;;2.17;;
76063;SDS011;64762;52.006;8.424;2023-07-13T13:27:17;6.97;;;2.97;;
76063;SDS011;64762;52.006;8.424;2023-07-13T13:29:43;7.95;;;2.83;;
76063;SDS011;64762;52.006;8.424;2023-07-13T13:32:11;12.52;;;2.85;;
76063;SDS011;64762;52.006;8.424;2023-07-13T13:34:38;5.65;;;2.28;;
76063;SDS011;64762;52.006;8.424;2023-07-13T13:37:04;7.85;;;2.40;;
76063;SDS011;64762;52.006;8.424;2023-07-13T13:39:43;14.20;;;4.78;;
76063;SDS011;64762;52.006;8.424;2023-07-13T13:42:09;9.30;;;2.88;;
76063;SDS011;64762;52.006;8.424;2023-07-13T13:44:35;10.93;;;3.45;;
76063;SDS011;64762;52.006;8.424;2023-07-13T13:47:00;10.23;;;4.20;;
76063;SDS011;64762;52.006;8.424;2023-07-13T13:49:27;9.07;;;3.95;;
76063;SDS011;64762;52.006;8.424;2023-07-13T13:51:53;12.07;;;3.97;;
76063;SDS011;64762;52.006;8.424;2023-07-13T13:54:19;9.95;;;4.22;;
76063;SDS011;64762;52.006;8.424;2023-07-13T13:56:46;7.78;;;4.40;;
76063;SDS011;64762;52.006;8.424;2023-07-13T13:59:13;8.07;;;4.28;;
76063;SDS011;64762;52.006;8.424;2023-07-13T14:01:39;11.25;;;4.88;;
76063;SDS011;64762;52.006;8.424;2023-07-13T14:04:05;10.57;;;4.43;;
76063;SDS011;64762;52.006;8.424;2023-07-13T14:06:32;9.38;;;4.25;;
76063;SDS011;64762;52.006;8.424;2023-07-13T14:08:58;10.65;;;3.92;;
76063;SDS011;64762;52.006;8.424;2023-07-13T14:11:24;9.10;;;3.72;;
76063;SDS011;64762;52.006;8.424;2023-07-13T14:13:59;8.57;;;4.60;;
76063;SDS011;64762;52.006;8.424;2023-07-13T14:18:57;6.22;;;3.80;;
76063;SDS011;64762;52.006;8.424;2023-07-13T14:21:25;9.18;;;3.55;;
76063;SDS011;64762;52.006;8.424;2023-07-13T14:23:51;8.20;;;3.58;;
76063;SDS011;64762;52.006;8.424;2023-07-13T14:26:17;8.83;;;4.73;;
76063;SDS011;64762;52.006;8.424;2023-07-13T14:28:48;9.82;;;4.05;;
76063;SDS011;64762;52.006;8.424;2023-07-13T14:31:15;9.45;;;3.75;;
76063;SDS011;64762;52.006;8.424;2023-07-13T14:33:41;8.98;;;4.00;;
76063;SDS011;64762;52.006;8.424;2023-07-13T14:36:17;9.57;;;4.45;;
76063;SDS011;64762;52.006;8.424;2023-07-13T14:38:49;8.20;;;4.38;;
76063;SDS011;64762;52.006;8.424;2023-07-13T14:41:14;8.13;;;4.03;;
76063;SDS011;64762;52.006;8.424;2023-07-13T14:43:40;7.22;;;3.70;;
76063;SDS011;64762;52.006;8.424;2023-07-13T14:46:07;11.80;;;4.70;;
76063;SDS011;64762;52.006;8.424;2023-07-13T14:48:43;6.00;;;3.58;;
76063;SDS011;64762;52.006;8.424;2023-07-13T14:51:09;11.57;;;3.60;;
76063;SDS011;64762;52.006;8.424;2023-07-13T14:53:35;5.85;;;2.70;;
76063;SDS011;64762;52.006;8.424;2023-07-13T14:56:00;5.13;;;2.45;;
76063;SDS011;64762;52.006;8.424;2023-07-13T14:58:25;6.50;;;2.60;;
76063;SDS011;64762;52.006;8.424;2023-07-13T15:00:51;4.77;;;2.60;;
76063;SDS011;64762;52.006;8.424;2023-07-13T15:03:21;6.72;;;2.70;;
76063;SDS011;64762;52.006;8.424;2023-07-13T15:05:48;6.53;;;3.13;;
76063;SDS011;64762;52.006;8.424;2023-07-13T15:08:13;7.07;;;3.03;;
76063;SDS011;64762;52.006;8.424;2023-07-13T15:10:40;8.65;;;3.97;;
76063;SDS011;64762;52.006;8.424;2023-07-13T15:13:15;6.15;;;3.03;;
76063;SDS011;64762;52.006;8.424;2023-07-13T15:15:45;5.18;;;2.65;;
76063;SDS011;64762;52.006;8.424;2023-07-13T15:18:13;6.43;;;3.22;;
76063;SDS011;64762;52.006;8.424;2023-07-13T15:20:42;6.30;;;2.88;;
76063;SDS011;64762;52.006;8.424;2023-07-13T15:23:09;5.53;;;3.05;;
76063;SDS011;64762;52.006;8.424;2023-07-13T15:25:35;8.65;;;3.63;;